sensor_id;sensor_type;location;lat;lon;timestamp;P1;durP1;ratioP1;P2;durP2;ratioP2
24016;SDS011;12222;50.090;19.702;2022-11-15T00:00:14;0.37;;;0.37;;
24016;SDS011;12222;50.090;19.702;2022-11-15T00:05:35;0.37;;;0.37;;
24016;SDS011;12222;50.090;19.702;2022-11-15T00:10:56;1.27;;;1.27;;
24016;SDS011;12222;50.090;19.702;2022-11-15T00:16:21;6.27;;;3.17;;
24016;SDS011;12222;50.090;19.702;2022-11-15T00:21:41;0.20;;;0.20;;
24016;SDS011;12222;50.090;19.702;2022-11-15T00:27:02;3.73;;;3.50;;
24016;SDS011;12222;50.090;19.702;2022-11-15T00:32:26;0.23;;;0.23;;
24016;SDS011;12222;50.090;19.702;2022-11-15T00:37:50;1.23;;;1.23;;
24016;SDS011;12222;50.090;19.702;2022-11-15T00:43:12;1.03;;;1.03;;
24016;SDS011;12222;50.090;19.702;2022-11-15T00:48:32;2.47;;;2.37;;
24016;SDS011;12222;50.090;19.702;2022-11-15T00:53:53;2.53;;;2.33;;
24016;SDS011;12222;50.090;19.702;2022-11-15T00:59:13;4.93;;;2.57;;
24016;SDS011;12222;50.090;19.702;2022-11-15T01:04:33;2.93;;;2.83;;
24016;SDS011;12222;50.090;19.702;2022-11-15T01:09:53;3.40;;;2.00;;
24016;SDS011;12222;50.090;19.702;2022-11-15T01:15:14;1.80;;;0.83;;
24016;SDS011;12222;50.090;19.702;2022-11-15T01:20:39;1.27;;;1.17;;
24016;SDS011;12222;50.090;19.702;2022-11-15T01:26:03;1.70;;;1.67;;
24016;SDS011;12222;50.090;19.702;2022-11-15T01:31:25;0.40;;;0.40;;
24016;SDS011;12222;50.090;19.702;2022-11-15T01:36:46;2.20;;;2.10;;
24016;SDS011;12222;50.090;19.702;2022-11-15T01:42:09;1.10;;;1.10;;
24016;SDS011;12222;50.090;19.702;2022-11-15T01:47:35;0.23;;;0.23;;
24016;SDS011;12222;50.090;19.702;2022-11-15T01:52:59;0.90;;;0.90;;
24016;SDS011;12222;50.090;19.702;2022-11-15T01:58:19;0.20;;;0.20;;
24016;SDS011;12222;50.090;19.702;2022-11-15T02:03:48;2.90;;;2.60;;
24016;SDS011;12222;50.090;19.702;2022-11-15T02:09:16;0.63;;;0.63;;
24016;SDS011;12222;50.090;19.702;2022-11-15T02:14:37;0.30;;;0.30;;
24016;SDS011;12222;50.090;19.702;2022-11-15T02:20:20;1.57;;;1.17;;
24016;SDS011;12222;50.090;19.702;2022-11-15T02:31:54;0.60;;;0.60;;
24016;SDS011;12222;50.090;19.702;2022-11-15T02:37:37;0.23;;;0.23;;
24016;SDS011;12222;50.090;19.702;2022-11-15T02:43:08;2.53;;;1.53;;
24016;SDS011;12222;50.090;19.702;2022-11-15T02:48:49;0.40;;;0.40;;
24016;SDS011;12222;50.090;19.702;2022-11-15T02:54:12;0.70;;;0.70;;
24016;SDS011;12222;50.090;19.702;2022-11-15T02:59:42;0.30;;;0.30;;
24016;SDS011;12222;50.090;19.702;2022-11-15T03:05:17;1.50;;;1.50;;
24016;SDS011;12222;50.090;19.702;2022-11-15T03:21:39;0.20;;;0.20;;
24016;SDS011;12222;50.090;19.702;2022-11-15T03:27:00;2.53;;;2.10;;
24016;SDS011;12222;50.090;19.702;2022-11-15T03:32:23;3.10;;;3.00;;
24016;SDS011;12222;50.090;19.702;2022-11-15T03:38:01;1.30;;;1.17;;
24016;SDS011;12222;50.090;19.702;2022-11-15T03:43:56;2.15;;;1.25;;
24016;SDS011;12222;50.090;19.702;2022-11-15T03:49:33;0.20;;;0.20;;
24016;SDS011;12222;50.090;19.702;2022-11-15T03:54:56;0.20;;;0.20;;
24016;SDS011;12222;50.090;19.702;2022-11-15T04:00:19;1.10;;;1.10;;
24016;SDS011;12222;50.090;19.702;2022-11-15T04:05:40;0.20;;;0.20;;
24016;SDS011;12222;50.090;19.702;2022-11-15T04:11:01;0.20;;;0.20;;
24016;SDS011;12222;50.090;19.702;2022-11-15T04:16:21;0.67;;;0.67;;
24016;SDS011;12222;50.090;19.702;2022-11-15T04:21:42;0.80;;;0.80;;
24016;SDS011;12222;50.090;19.702;2022-11-15T04:27:20;0.37;;;0.37;;
24016;SDS011;12222;50.090;19.702;2022-11-15T04:32:41;0.20;;;0.20;;
24016;SDS011;12222;50.090;19.702;2022-11-15T04:38:01;1.70;;;1.63;;
24016;SDS011;12222;50.090;19.702;2022-11-15T04:43:23;0.20;;;0.20;;
24016;SDS011;12222;50.090;19.702;2022-11-15T04:48:43;1.87;;;1.80;;
24016;SDS011;12222;50.090;19.702;2022-11-15T04:54:03;0.60;;;0.60;;
24016;SDS011;12222;50.090;19.702;2022-11-15T04:59:24;0.20;;;0.20;;
24016;SDS011;12222;50.090;19.702;2022-11-15T05:04:44;1.03;;;1.03;;
24016;SDS011;12222;50.090;19.702;2022-11-15T05:10:05;0.20;;;0.20;;
24016;SDS011;12222;50.090;19.702;2022-11-15T05:15:25;0.30;;;0.30;;
24016;SDS011;12222;50.090;19.702;2022-11-15T05:20:46;0.20;;;0.20;;
24016;SDS011;12222;50.090;19.702;2022-11-15T05:26:06;0.20;;;0.20;;
24016;SDS011;12222;50.090;19.702;2022-11-15T05:31:30;1.73;;;1.63;;
24016;SDS011;12222;50.090;19.702;2022-11-15T05:36:50;0.63;;;0.63;;
24016;SDS011;12222;50.090;19.702;2022-11-15T05:42:12;0.80;;;0.80;;
24016;SDS011;12222;50.090;19.702;2022-11-15T05:47:35;0.65;;;0.65;;
24016;SDS011;12222;50.090;19.702;2022-11-15T05:52:58;1.20;;;1.10;;
24016;SDS011;12222;50.090;19.702;2022-11-15T05:58:24;1.33;;;1.33;;
24016;SDS011;12222;50.090;19.702;2022-11-15T06:03:44;0.20;;;0.20;;
24016;SDS011;12222;50.090;19.702;2022-11-15T06:09:04;1.03;;;1.03;;
24016;SDS011;12222;50.090;19.702;2022-11-15T06:14:24;0.47;;;0.47;;
24016;SDS011;12222;50.090;19.702;2022-11-15T06:19:45;0.27;;;0.27;;
24016;SDS011;12222;50.090;19.702;2022-11-15T06:25:05;0.20;;;0.20;;
24016;SDS011;12222;50.090;19.702;2022-11-15T06:30:26;0.30;;;0.30;;
24016;SDS011;12222;50.090;19.702;2022-11-15T06:35:47;0.20;;;0.20;;
24016;SDS011;12222;50.090;19.702;2022-11-15T06:41:08;1.33;;;1.23;;
24016;SDS011;12222;50.090;19.702;2022-11-15T06:46:29;0.60;;;0.60;;
24016;SDS011;12222;50.090;19.702;2022-11-15T06:51:50;1.13;;;1.13;;
24016;SDS011;12222;50.090;19.702;2022-11-15T06:57:11;0.30;;;0.30;;
24016;SDS011;12222;50.090;19.702;2022-11-15T07:02:31;0.40;;;0.40;;
24016;SDS011;12222;50.090;19.702;2022-11-15T07:07:52;0.60;;;0.60;;
24016;SDS011;12222;50.090;19.702;2022-11-15T07:13:13;1.60;;;1.47;;
24016;SDS011;12222;50.090;19.702;2022-11-15T07:18:34;0.70;;;0.70;;
24016;SDS011;12222;50.090;19.702;2022-11-15T07:23:55;0.30;;;0.30;;
24016;SDS011;12222;50.090;19.702;2022-11-15T07:29:16;1.57;;;1.47;;
24016;SDS011;12222;50.090;19.702;2022-11-15T07:34:36;1.43;;;1.40;;
24016;SDS011;12222;50.090;19.702;2022-11-15T07:40:01;0.87;;;0.60;;
24016;SDS011;12222;50.090;19.702;2022-11-15T07:45:23;3.80;;;3.00;;
24016;SDS011;12222;50.090;19.702;2022-11-15T07:56:08;0.30;;;0.30;;
24016;SDS011;12222;50.090;19.702;2022-11-15T08:01:29;0.30;;;0.30;;
24016;SDS011;12222;50.090;19.702;2022-11-15T08:06:49;1.73;;;1.73;;
24016;SDS011;12222;50.090;19.702;2022-11-15T08:12:10;1.20;;;1.20;;
24016;SDS011;12222;50.090;19.702;2022-11-15T08:17:30;1.53;;;1.53;;
24016;SDS011;12222;50.090;19.702;2022-11-15T08:22:52;0.70;;;0.70;;
24016;SDS011;12222;50.090;19.702;2022-11-15T08:28:12;0.33;;;0.33;;
24016;SDS011;12222;50.090;19.702;2022-11-15T08:33:36;0.17;;;0.17;;
24016;SDS011;12222;50.090;19.702;2022-11-15T08:38:56;0.20;;;0.20;;
24016;SDS011;12222;50.090;19.702;2022-11-15T08:44:16;0.53;;;0.53;;
24016;SDS011;12222;50.090;19.702;2022-11-15T08:49:37;1.50;;;1.43;;
24016;SDS011;12222;50.090;19.702;2022-11-15T08:54:57;0.30;;;0.30;;
24016;SDS011;12222;50.090;19.702;2022-11-15T09:00:17;1.67;;;1.63;;
24016;SDS011;12222;50.090;19.702;2022-11-15T09:05:40;2.50;;;2.40;;
24016;SDS011;12222;50.090;19.702;2022-11-15T09:11:07;1.73;;;1.63;;
24016;SDS011;12222;50.090;19.702;2022-11-15T09:16:30;0.40;;;0.40;;
24016;SDS011;12222;50.090;19.702;2022-11-15T09:21:50;0.83;;;0.83;;
24016;SDS011;12222;50.090;19.702;2022-11-15T09:27:11;1.97;;;1.43;;
24016;SDS011;12222;50.090;19.702;2022-11-15T09:32:32;0.67;;;0.67;;
24016;SDS011;12222;50.090;19.702;2022-11-15T09:37:58;3.47;;;1.90;;
24016;SDS011;12222;50.090;19.702;2022-11-15T09:43:27;4.07;;;3.70;;
24016;SDS011;12222;50.090;19.702;2022-11-15T09:48:57;2.17;;;2.07;;
24016;SDS011;12222;50.090;19.702;2022-11-15T10:05:42;0.87;;;0.87;;
24016;SDS011;12222;50.090;19.702;2022-11-15T10:10:49;2.73;;;1.83;;
24016;SDS011;12222;50.090;19.702;2022-11-15T10:21:52;0.63;;;0.63;;
24016;SDS011;12222;50.090;19.702;2022-11-15T10:26:58;0.60;;;0.60;;
24016;SDS011;12222;50.090;19.702;2022-11-15T10:31:59;1.63;;;1.53;;
24016;SDS011;12222;50.090;19.702;2022-11-15T10:37:01;0.43;;;0.43;;
24016;SDS011;12222;50.090;19.702;2022-11-15T10:42:17;0.20;;;0.20;;
24016;SDS011;12222;50.090;19.702;2022-11-15T10:47:30;3.27;;;3.07;;
24016;SDS011;12222;50.090;19.702;2022-11-15T10:52:43;1.13;;;1.13;;
24016;SDS011;12222;50.090;19.702;2022-11-15T10:57:51;2.97;;;2.87;;
24016;SDS011;12222;50.090;19.702;2022-11-15T11:03:05;2.40;;;1.90;;
24016;SDS011;12222;50.090;19.702;2022-11-15T11:08:23;0.73;;;0.73;;
24016;SDS011;12222;50.090;19.702;2022-11-15T11:13:26;5.30;;;3.87;;
24016;SDS011;12222;50.090;19.702;2022-11-15T11:18:34;2.87;;;2.57;;
24016;SDS011;12222;50.090;19.702;2022-11-15T11:23:55;1.27;;;1.20;;
24016;SDS011;12222;50.090;19.702;2022-11-15T11:39:39;2.47;;;2.27;;
24016;SDS011;12222;50.090;19.702;2022-11-15T11:50:15;4.30;;;1.52;;
24016;SDS011;12222;50.090;19.702;2022-11-15T12:00:29;2.13;;;2.03;;
24016;SDS011;12222;50.090;19.702;2022-11-15T12:10:46;1.43;;;1.40;;
24016;SDS011;12222;50.090;19.702;2022-11-15T12:16:28;2.33;;;2.23;;
24016;SDS011;12222;50.090;19.702;2022-11-15T12:27:06;4.00;;;3.60;;
24016;SDS011;12222;50.090;19.702;2022-11-15T12:32:26;3.47;;;3.27;;
24016;SDS011;12222;50.090;19.702;2022-11-15T12:37:33;3.07;;;2.90;;
24016;SDS011;12222;50.090;19.702;2022-11-15T12:42:42;0.77;;;0.77;;
24016;SDS011;12222;50.090;19.702;2022-11-15T12:58:28;2.80;;;2.60;;
24016;SDS011;12222;50.090;19.702;2022-11-15T13:19:40;0.77;;;0.77;;
24016;SDS011;12222;50.090;19.702;2022-11-15T13:24:42;3.30;;;3.17;;
24016;SDS011;12222;50.090;19.702;2022-11-15T13:29:44;3.23;;;3.13;;
24016;SDS011;12222;50.090;19.702;2022-11-15T13:34:46;4.30;;;3.37;;
24016;SDS011;12222;50.090;19.702;2022-11-15T13:39:52;14.30;;;3.37;;
24016;SDS011;12222;50.090;19.702;2022-11-15T13:44:55;1.53;;;1.53;;
24016;SDS011;12222;50.090;19.702;2022-11-15T13:49:59;2.37;;;2.27;;
24016;SDS011;12222;50.090;19.702;2022-11-15T13:55:10;4.40;;;3.70;;
24016;SDS011;12222;50.090;19.702;2022-11-15T14:05:41;6.23;;;4.57;;
24016;SDS011;12222;50.090;19.702;2022-11-15T14:10:43;4.47;;;4.13;;
24016;SDS011;12222;50.090;19.702;2022-11-15T14:15:47;0.97;;;0.97;;
24016;SDS011;12222;50.090;19.702;2022-11-15T14:20:50;2.47;;;2.30;;
24016;SDS011;12222;50.090;19.702;2022-11-15T14:26:29;3.23;;;3.03;;
24016;SDS011;12222;50.090;19.702;2022-11-15T14:31:34;5.83;;;5.43;;
24016;SDS011;12222;50.090;19.702;2022-11-15T14:36:44;4.40;;;4.10;;
24016;SDS011;12222;50.090;19.702;2022-11-15T14:41:47;5.13;;;3.23;;
24016;SDS011;12222;50.090;19.702;2022-11-15T14:46:50;3.25;;;3.08;;
24016;SDS011;12222;50.090;19.702;2022-11-15T14:51:53;2.35;;;2.20;;
24016;SDS011;12222;50.090;19.702;2022-11-15T14:56:56;3.83;;;3.53;;
24016;SDS011;12222;50.090;19.702;2022-11-15T15:01:59;3.53;;;3.10;;
24016;SDS011;12222;50.090;19.702;2022-11-15T15:12:12;4.20;;;4.00;;
24016;SDS011;12222;50.090;19.702;2022-11-15T15:17:23;9.77;;;7.30;;
24016;SDS011;12222;50.090;19.702;2022-11-15T15:22:28;3.83;;;3.57;;
24016;SDS011;12222;50.090;19.702;2022-11-15T15:27:32;3.93;;;3.63;;
24016;SDS011;12222;50.090;19.702;2022-11-15T15:32:39;6.37;;;5.53;;
24016;SDS011;12222;50.090;19.702;2022-11-15T15:37:45;1.83;;;1.73;;
24016;SDS011;12222;50.090;19.702;2022-11-15T15:42:49;3.63;;;2.33;;
24016;SDS011;12222;50.090;19.702;2022-11-15T15:47:53;7.10;;;6.57;;
24016;SDS011;12222;50.090;19.702;2022-11-15T15:58:04;3.13;;;2.93;;
24016;SDS011;12222;50.090;19.702;2022-11-15T16:03:07;3.43;;;2.73;;
24016;SDS011;12222;50.090;19.702;2022-11-15T16:08:24;1.80;;;1.70;;
24016;SDS011;12222;50.090;19.702;2022-11-15T16:13:48;6.57;;;5.97;;
24016;SDS011;12222;50.090;19.702;2022-11-15T16:18:57;3.77;;;3.17;;
24016;SDS011;12222;50.090;19.702;2022-11-15T16:24:03;6.57;;;5.00;;
24016;SDS011;12222;50.090;19.702;2022-11-15T16:29:07;4.20;;;3.17;;
24016;SDS011;12222;50.090;19.702;2022-11-15T16:34:15;22.97;;;16.30;;
24016;SDS011;12222;50.090;19.702;2022-11-15T16:39:18;9.40;;;8.45;;
24016;SDS011;12222;50.090;19.702;2022-11-15T16:44:21;12.43;;;9.87;;
24016;SDS011;12222;50.090;19.702;2022-11-15T16:49:26;4.57;;;4.27;;
24016;SDS011;12222;50.090;19.702;2022-11-15T16:54:29;5.40;;;5.10;;
24016;SDS011;12222;50.090;19.702;2022-11-15T16:59:36;6.33;;;5.93;;
24016;SDS011;12222;50.090;19.702;2022-11-15T17:04:39;9.95;;;9.10;;
24016;SDS011;12222;50.090;19.702;2022-11-15T17:09:42;6.22;;;5.70;;
24016;SDS011;12222;50.090;19.702;2022-11-15T17:14:45;4.18;;;3.60;;
24016;SDS011;12222;50.090;19.702;2022-11-15T17:19:48;5.18;;;3.58;;
24016;SDS011;12222;50.090;19.702;2022-11-15T17:24:51;9.17;;;8.20;;
24016;SDS011;12222;50.090;19.702;2022-11-15T17:29:54;2.35;;;2.25;;
24016;SDS011;12222;50.090;19.702;2022-11-15T17:39:59;3.13;;;2.83;;
24016;SDS011;12222;50.090;19.702;2022-11-15T17:45:02;1.48;;;1.42;;
24016;SDS011;12222;50.090;19.702;2022-11-15T17:50:10;3.57;;;3.37;;
24016;SDS011;12222;50.090;19.702;2022-11-15T17:55:13;5.22;;;4.78;;
24016;SDS011;12222;50.090;19.702;2022-11-15T18:00:16;2.95;;;2.83;;
24016;SDS011;12222;50.090;19.702;2022-11-15T18:05:21;5.03;;;4.73;;
24016;SDS011;12222;50.090;19.702;2022-11-15T18:10:24;1.60;;;1.58;;
24016;SDS011;12222;50.090;19.702;2022-11-15T18:15:27;5.03;;;3.28;;
24016;SDS011;12222;50.090;19.702;2022-11-15T18:20:30;24.70;;;6.43;;
24016;SDS011;12222;50.090;19.702;2022-11-15T18:25:33;7.60;;;6.83;;
24016;SDS011;12222;50.090;19.702;2022-11-15T18:35:45;4.83;;;4.40;;
24016;SDS011;12222;50.090;19.702;2022-11-15T18:40:49;3.47;;;3.27;;
24016;SDS011;12222;50.090;19.702;2022-11-15T18:45:52;4.03;;;3.83;;
24016;SDS011;12222;50.090;19.702;2022-11-15T18:50:59;8.25;;;7.65;;
24016;SDS011;12222;50.090;19.702;2022-11-15T18:56:07;3.77;;;3.57;;
24016;SDS011;12222;50.090;19.702;2022-11-15T19:01:12;4.97;;;4.67;;
24016;SDS011;12222;50.090;19.702;2022-11-15T19:06:21;24.63;;;7.07;;
24016;SDS011;12222;50.090;19.702;2022-11-15T19:11:31;18.70;;;14.60;;
24016;SDS011;12222;50.090;19.702;2022-11-15T19:16:37;20.47;;;9.40;;
24016;SDS011;12222;50.090;19.702;2022-11-15T19:21:42;26.90;;;12.40;;
24016;SDS011;12222;50.090;19.702;2022-11-15T19:27:00;4.53;;;4.10;;
24016;SDS011;12222;50.090;19.702;2022-11-15T19:32:05;16.17;;;7.50;;
24016;SDS011;12222;50.090;19.702;2022-11-15T19:37:08;6.13;;;5.60;;
24016;SDS011;12222;50.090;19.702;2022-11-15T19:42:30;8.43;;;7.63;;
24016;SDS011;12222;50.090;19.702;2022-11-15T19:47:44;10.60;;;9.67;;
24016;SDS011;12222;50.090;19.702;2022-11-15T19:53:01;20.83;;;12.93;;
24016;SDS011;12222;50.090;19.702;2022-11-15T19:58:16;9.73;;;9.00;;
24016;SDS011;12222;50.090;19.702;2022-11-15T20:03:21;11.73;;;10.57;;
24016;SDS011;12222;50.090;19.702;2022-11-15T20:08:44;11.17;;;9.10;;
24016;SDS011;12222;50.090;19.702;2022-11-15T20:13:49;10.43;;;9.60;;
24016;SDS011;12222;50.090;19.702;2022-11-15T20:19:05;9.80;;;9.07;;
24016;SDS011;12222;50.090;19.702;2022-11-15T20:24:35;11.43;;;10.33;;
24016;SDS011;12222;50.090;19.702;2022-11-15T20:29:40;9.37;;;8.73;;
24016;SDS011;12222;50.090;19.702;2022-11-15T20:34:45;20.87;;;14.63;;
24016;SDS011;12222;50.090;19.702;2022-11-15T20:39:55;10.83;;;7.43;;
24016;SDS011;12222;50.090;19.702;2022-11-15T20:44:59;8.93;;;8.17;;
24016;SDS011;12222;50.090;19.702;2022-11-15T20:50:05;12.30;;;8.10;;
24016;SDS011;12222;50.090;19.702;2022-11-15T20:55:29;5.37;;;4.97;;
24016;SDS011;12222;50.090;19.702;2022-11-15T21:00:32;10.10;;;6.55;;
24016;SDS011;12222;50.090;19.702;2022-11-15T21:05:41;24.93;;;13.13;;
24016;SDS011;12222;50.090;19.702;2022-11-15T21:10:48;19.07;;;14.00;;
24016;SDS011;12222;50.090;19.702;2022-11-15T21:16:11;13.67;;;12.27;;
24016;SDS011;12222;50.090;19.702;2022-11-15T21:21:14;9.00;;;8.45;;
24016;SDS011;12222;50.090;19.702;2022-11-15T21:26:17;8.02;;;6.85;;
24016;SDS011;12222;50.090;19.702;2022-11-15T21:31:21;3.87;;;3.67;;
24016;SDS011;12222;50.090;19.702;2022-11-15T21:36:25;3.60;;;2.37;;
24016;SDS011;12222;50.090;19.702;2022-11-15T21:41:31;5.87;;;5.27;;
24016;SDS011;12222;50.090;19.702;2022-11-15T21:46:38;5.33;;;4.87;;
24016;SDS011;12222;50.090;19.702;2022-11-15T21:51:53;2.70;;;2.33;;
24016;SDS011;12222;50.090;19.702;2022-11-15T21:57:15;5.33;;;4.90;;
24016;SDS011;12222;50.090;19.702;2022-11-15T22:02:20;3.53;;;3.33;;
24016;SDS011;12222;50.090;19.702;2022-11-15T22:07:23;5.53;;;5.20;;
24016;SDS011;12222;50.090;19.702;2022-11-15T22:12:27;2.27;;;2.17;;
24016;SDS011;12222;50.090;19.702;2022-11-15T22:17:30;6.70;;;6.17;;
24016;SDS011;12222;50.090;19.702;2022-11-15T22:22:52;6.37;;;5.97;;
24016;SDS011;12222;50.090;19.702;2022-11-15T22:27:55;5.72;;;5.35;;
24016;SDS011;12222;50.090;19.702;2022-11-15T22:32:58;5.90;;;5.60;;
24016;SDS011;12222;50.090;19.702;2022-11-15T22:38:01;3.92;;;3.72;;
24016;SDS011;12222;50.090;19.702;2022-11-15T22:43:04;9.00;;;6.47;;
24016;SDS011;12222;50.090;19.702;2022-11-15T22:48:10;4.80;;;4.50;;
24016;SDS011;12222;50.090;19.702;2022-11-15T22:53:13;5.07;;;4.25;;
24016;SDS011;12222;50.090;19.702;2022-11-15T22:58:16;3.17;;;3.05;;
24016;SDS011;12222;50.090;19.702;2022-11-15T23:03:20;6.17;;;5.63;;
24016;SDS011;12222;50.090;19.702;2022-11-15T23:08:23;4.60;;;4.13;;
24016;SDS011;12222;50.090;19.702;2022-11-15T23:13:26;4.90;;;4.60;;
24016;SDS011;12222;50.090;19.702;2022-11-15T23:18:33;3.33;;;3.13;;
24016;SDS011;12222;50.090;19.702;2022-11-15T23:23:36;3.63;;;3.43;;
24016;SDS011;12222;50.090;19.702;2022-11-15T23:28:39;8.77;;;5.00;;
24016;SDS011;12222;50.090;19.702;2022-11-15T23:33:40;3.83;;;3.60;;
24016;SDS011;12222;50.090;19.702;2022-11-15T23:38:57;6.33;;;5.83;;
24016;SDS011;12222;50.090;19.702;2022-11-15T23:43:59;11.00;;;7.60;;
24016;SDS011;12222;50.090;19.702;2022-11-15T23:49:01;5.27;;;4.27;;
24016;SDS011;12222;50.090;19.702;2022-11-15T23:54:03;6.07;;;5.60;;
24016;SDS011;12222;50.090;19.702;2022-11-15T23:59:06;6.33;;;4.60;;
